Time;durP1;ratioP1;P1;durP2;ratioP2;P2;SDS_P1;SDS_P2;PMS_P1;PMS_P2;Temp;Humidity;BMP_temperature;BMP_pressure;BME280_temperature;BME280_humidity;BME280_pressure;Samples;Min_cycle;Max_cycle;Signal;HPM_P1;HPM_P2
2022/11/04 00:02:33;;;;;;;5.53;4.37;;;;;;;16.30;60.17;97790.50;6974392;28;20720;-79
2022/11/04 00:05:54;;;;;;;4.47;4.03;;;;;;;16.67;59.04;97802.09;6973916;28;20290;-79
2022/11/04 00:09:18;;;;;;;5.13;4.30;;;;;;;16.70;58.68;97801.56;6971028;28;20208;-79
2022/11/04 00:12:39;;;;;;;5.57;4.97;;;;;;;16.42;60.43;97810.19;6946049;28;20216;-79
2022/11/04 00:30:41;;;;;;;4.10;2.60;;;;;;;16.21;58.23;97787.47;6944863;28;20188;-79
2022/11/04 00:34:01;;;;;;;3.23;2.90;;;;;;;16.25;57.39;97801.38;6946267;28;20292;-79
2022/11/04 00:37:24;;;;;;;4.03;2.93;;;;;;;15.95;57.70;97731.38;6945296;28;20234;-79
2022/11/04 00:40:46;;;;;;;3.93;2.47;;;;;;;16.43;57.63;97787.31;6945101;28;20349;-79
2022/11/04 00:44:07;;;;;;;3.10;2.43;;;;;;;16.32;57.18;97791.88;6945497;28;20298;-79
2022/11/04 00:47:29;;;;;;;2.70;2.47;;;;;;;16.55;57.24;97783.28;6945107;28;20302;-79
2022/11/04 00:50:50;;;;;;;2.00;1.90;;;;;;;16.21;58.15;97790.19;6946496;28;20241;-79
2022/11/04 00:54:13;;;;;;;2.07;1.93;;;;;;;16.01;57.86;97757.50;6945259;28;20254;-80
2022/11/04 00:57:35;;;;;;;2.50;2.30;;;;;;;15.99;57.54;97808.56;6945081;28;20367;-79
2022/11/04 01:00:56;;;;;;;2.80;2.10;;;;;;;16.10;57.47;97814.91;6944678;28;20345;-80
2022/11/04 01:04:18;;;;;;;2.70;1.90;;;;;;;16.44;56.75;97816.16;6945487;28;20434;-79
2022/11/04 01:07:39;;;;;;;2.30;2.10;;;;;;;16.20;56.71;97825.81;6945016;28;20295;-80
2022/11/04 01:11:03;;;;;;;2.27;1.93;;;;;;;16.03;57.49;97814.28;6945376;28;20325;-79
2022/11/04 01:14:26;;;;;;;2.33;2.13;;;;;;;16.26;57.39;97817.44;6945107;28;20213;-80
2022/11/04 01:17:47;;;;;;;1.90;1.70;;;;;;;16.51;56.66;97822.19;6945834;28;20375;-79
2022/11/04 01:21:11;;;;;;;3.07;2.43;;;;;;;16.14;57.00;97792.34;6949162;28;20820;-79
2022/11/04 01:24:33;;;;;;;2.10;2.00;;;;;;;16.17;57.90;97824.44;6951829;28;20218;-79
2022/11/04 01:27:56;;;;;;;1.90;1.80;;;;;;;16.10;57.19;97821.13;6950951;28;20286;-79
2022/11/04 01:31:20;;;;;;;1.73;1.63;;;;;;;15.94;58.08;97849.34;6951830;28;20741;-80
2022/11/04 01:34:41;;;;;;;2.10;1.90;;;;;;;16.40;57.28;97836.84;6951917;28;20359;-79
2022/11/04 01:38:03;;;;;;;3.43;1.80;;;;;;;16.14;57.70;97837.75;6951414;28;20349;-79
2022/11/04 01:41:26;;;;;;;2.20;1.80;;;;;;;16.44;57.28;97822.44;6951695;28;20307;-79
2022/11/04 01:45:00;;;;;;;2.30;2.03;;;;;;;16.55;57.17;97840.44;6951591;28;20209;-80
2022/11/04 01:48:26;;;;;;;2.10;1.90;;;;;;;16.09;57.86;97827.66;6950439;28;20727;-80
2022/11/04 01:51:49;;;;;;;2.33;2.13;;;;;;;16.31;57.93;97843.81;6950086;28;20320;-80
2022/11/04 01:55:14;;;;;;;1.90;1.80;;;;;;;16.13;58.14;97833.41;6951180;28;20224;-79
2022/11/04 01:58:35;;;;;;;2.03;1.93;;;;;;;16.08;58.21;97825.19;6950686;28;20210;-79
2022/11/04 02:01:58;;;;;;;1.90;1.80;;;;;;;16.12;58.39;97834.47;6951294;28;20290;-78
2022/11/04 02:05:20;;;;;;;2.13;1.90;;;;;;;16.21;58.23;97819.31;6951471;28;20289;-79
2022/11/04 02:08:42;;;;;;;1.90;1.80;;;;;;;15.99;59.24;97827.59;6949617;28;20228;-79
2022/11/04 02:15:55;;;;;;;2.03;1.93;;;;;;;16.10;58.39;97807.53;6949598;28;20229;-79
2022/11/04 02:19:39;;;;;;;2.37;1.90;;;;;;;15.19;59.61;97783.53;6949786;28;20293;-79
2022/11/04 02:23:40;;;;;;;2.00;1.90;;;;;;;15.80;58.55;97793.78;6949836;28;20383;-79
2022/11/04 02:27:18;;;;;;;2.27;2.07;;;;;;;16.05;58.47;97828.47;6905705;28;20272;-78
2022/11/04 02:30:47;;;;;;;2.10;2.00;;;;;;;16.20;57.86;97823.09;6949769;28;20214;-80
2022/11/04 02:34:12;;;;;;;2.07;1.97;;;;;;;16.36;57.65;97827.53;6949565;28;20347;-79
2022/11/04 02:37:39;;;;;;;4.27;2.27;;;;;;;15.45;60.13;97837.00;6949870;28;20348;-78
2022/11/04 02:41:06;;;;;;;3.27;2.17;;;;;;;15.43;60.55;97836.44;6950079;28;20234;-79
2022/11/04 02:44:31;;;;;;;2.40;2.20;;;;;;;14.89;62.88;97836.72;6950299;28;20297;-79
2022/11/04 02:48:01;;;;;;;2.10;2.00;;;;;;;15.55;60.55;97834.38;6948970;28;20613;-79
2022/11/04 02:51:26;;;;;;;2.40;2.20;;;;;;;15.58;59.76;97828.41;6949895;28;20327;-79
2022/11/04 02:54:49;;;;;;;2.43;2.23;;;;;;;15.82;58.99;97837.00;6949743;28;20227;-79
2022/11/04 02:58:15;;;;;;;2.10;1.90;;;;;;;15.96;57.58;97832.75;6949178;28;20263;-78
2022/11/04 03:01:40;;;;;;;3.33;1.93;;;;;;;15.57;58.87;97834.94;6966461;28;20696;-79
2022/11/04 03:05:07;;;;;;;1.97;1.87;;;;;;;15.13;59.94;97838.03;6979944;28;20666;-80
2022/11/04 03:08:31;;;;;;;2.10;2.00;;;;;;;15.63;58.88;97823.00;6980453;28;20257;-80
2022/11/04 03:11:56;;;;;;;2.57;2.37;;;;;;;15.92;58.11;97826.22;6978559;28;20254;-79
2022/11/04 03:15:20;;;;;;;2.00;1.90;;;;;;;15.79;58.29;97823.94;6975755;28;20302;-79
2022/11/04 03:18:49;;;;;;;2.30;2.10;;;;;;;15.44;59.33;97823.66;6976386;28;20218;-79
2022/11/04 03:22:14;;;;;;;3.23;2.20;;;;;;;15.74;58.94;97837.50;6976926;28;20259;-79
2022/11/04 03:25:38;;;;;;;3.57;2.33;;;;;;;15.19;60.28;97848.69;6976550;28;20277;-79
2022/11/04 03:29:08;;;;;;;2.83;2.50;;;;;;;15.08;60.94;97851.56;6975460;28;20294;-79
2022/11/04 03:32:38;;;;;;;3.20;2.90;;;;;;;14.93;61.31;97844.09;6976115;28;21006;-79
2022/11/04 03:36:00;;;;;;;3.83;2.20;;;;;;;15.36;60.17;97860.31;6975782;28;20342;-79
2022/11/04 03:39:23;;;;;;;2.10;2.00;;;;;;;14.67;62.13;97871.19;6975503;28;20214;-79
2022/11/04 03:42:47;;;;;;;3.23;2.40;;;;;;;15.28;60.28;97868.88;6975895;28;20318;-78
2022/11/04 03:46:09;;;;;;;2.73;2.53;;;;;;;15.13;60.69;97871.44;6975922;28;20860;-79
2022/11/04 03:49:31;;;;;;;2.97;2.60;;;;;;;14.96;60.54;97880.75;6975327;28;20695;-79
2022/11/04 03:52:52;;;;;;;2.50;2.30;;;;;;;14.97;60.69;97890.53;6975733;28;20266;-79
2022/11/04 03:56:34;;;;;;;2.70;2.50;;;;;;;14.96;60.82;97897.88;6976084;28;20316;-79
2022/11/04 04:00:14;;;;;;;2.77;2.50;;;;;;;14.98;61.27;97906.56;6975338;28;20633;-79
2022/11/04 04:03:39;;;;;;;2.80;2.50;;;;;;;15.03;61.17;97898.47;6975530;28;20322;-79
2022/11/04 04:07:04;;;;;;;3.33;2.33;;;;;;;15.02;60.94;97902.28;6979833;28;20301;-80
2022/11/04 04:10:41;;;;;;;3.73;2.73;;;;;;;15.05;60.66;97892.81;6976195;28;20241;-79
2022/11/04 04:14:07;;;;;;;7.23;2.73;;;;;;;14.82;61.37;97884.94;6969797;28;20253;-79
2022/11/04 04:17:34;;;;;;;3.50;2.77;;;;;;;14.85;61.28;97887.97;6974488;28;20361;-79
2022/11/04 04:20:56;;;;;;;3.17;2.50;;;;;;;14.95;61.04;97873.69;6975407;28;20270;-79
2022/11/04 04:28:00;;;;;;;2.90;2.70;;;;;;;14.64;61.76;97877.13;6972992;28;20189;-79
2022/11/04 04:46:02;;;;;;;5.60;2.97;;;;;;;14.29;62.55;97899.19;6973390;28;20207;-80
2022/11/04 04:49:33;;;;;;;3.03;2.73;;;;;;;14.43;62.52;97899.66;6972855;28;20281;-80
2022/11/04 04:52:57;;;;;;;3.00;2.70;;;;;;;14.47;62.08;97907.06;6973239;28;20242;-80
2022/11/04 04:56:18;;;;;;;2.77;2.57;;;;;;;14.56;62.25;97891.13;6967159;28;20290;-80
2022/11/04 04:59:40;;;;;;;3.67;2.90;;;;;;;14.82;61.18;97879.53;6973833;28;20245;-80
2022/11/04 05:03:01;;;;;;;3.00;2.70;;;;;;;14.73;61.03;97851.19;6973898;28;20239;-80
2022/11/04 05:06:24;;;;;;;2.63;2.43;;;;;;;14.15;62.44;97845.56;6973482;28;20412;-80
2022/11/04 05:09:46;;;;;;;2.90;2.33;;;;;;;14.72;61.30;97831.38;6972723;28;20298;-80
2022/11/04 05:13:25;;;;;;;2.70;2.37;;;;;;;14.51;61.11;97820.56;6972850;28;20309;-81
2022/11/04 05:16:47;;;;;;;2.27;2.07;;;;;;;14.46;61.51;97820.50;6973752;28;20278;-80
2022/11/04 05:20:10;;;;;;;2.67;2.40;;;;;;;14.29;61.18;97793.44;6971944;28;20277;-81
2022/11/04 05:23:33;;;;;;;2.60;2.30;;;;;;;14.39;60.99;97795.47;6971947;28;20359;-80
2022/11/04 05:26:55;;;;;;;3.30;2.70;;;;;;;14.06;61.64;97833.50;6972654;28;20245;-80
2022/11/04 05:30:17;;;;;;;2.90;2.70;;;;;;;14.38;61.57;97837.19;6972446;28;20297;-80
2022/11/04 05:33:38;;;;;;;3.10;2.80;;;;;;;14.53;61.14;97840.09;6972930;28;20262;-80
2022/11/04 05:37:00;;;;;;;6.37;3.10;;;;;;;14.54;60.90;97844.47;6973624;28;20721;-80
2022/11/04 05:40:23;;;;;;;2.50;2.30;;;;;;;14.49;60.14;97830.81;6973012;28;20206;-80
2022/11/04 05:43:44;;;;;;;2.70;2.50;;;;;;;14.38;60.49;97853.47;6972920;28;20355;-80
2022/11/04 05:47:06;;;;;;;4.17;2.30;;;;;;;14.25;60.96;97845.72;6972780;28;20267;-80
2022/11/04 05:50:27;;;;;;;2.80;2.50;;;;;;;14.10;60.79;97849.00;6972359;28;20202;-80
2022/11/04 05:53:49;;;;;;;43.10;22.27;;;;;;;13.46;62.41;97827.19;6973046;28;20312;-80
2022/11/04 05:57:12;;;;;;;32.87;17.80;;;;;;;13.96;61.96;97847.75;6972206;28;20368;-82
2022/11/04 06:00:34;;;;;;;19.43;10.90;;;;;;;13.76;61.94;97838.50;6975452;28;20298;-79
2022/11/04 06:03:55;;;;;;;20.50;11.00;;;;;;;13.79;62.33;97817.16;6973998;28;20226;-80
2022/11/04 06:07:17;;;;;;;18.00;9.10;;;;;;;14.08;61.77;97842.19;6975248;28;20296;-80
2022/11/04 06:10:38;;;;;;;7.03;3.90;;;;;;;14.23;61.30;97854.09;6979608;28;20297;-80
2022/11/04 06:14:01;;;;;;;8.57;5.13;;;;;;;14.30;60.17;97859.34;6979924;28;20259;-80
2022/11/04 06:17:23;;;;;;;4.27;2.60;;;;;;;14.01;61.06;97866.78;6983870;28;20301;-81
2022/11/04 06:20:44;;;;;;;6.23;3.20;;;;;;;14.04;60.56;97858.13;6980879;28;20298;-79
2022/11/04 06:24:06;;;;;;;3.03;2.23;;;;;;;14.02;60.91;97873.00;6980851;28;20297;-80
2022/11/04 06:27:27;;;;;;;3.67;2.33;;;;;;;14.17;59.77;97892.22;6980498;28;20682;-81
2022/11/04 06:30:50;;;;;;;3.60;2.03;;;;;;;13.99;60.01;97906.03;6979885;28;20253;-81
2022/11/04 06:34:12;;;;;;;2.17;1.80;;;;;;;13.73;60.44;97882.31;6956076;28;20299;-80
2022/11/04 06:37:33;;;;;;;4.17;1.97;;;;;;;13.86;60.77;97884.72;6952759;28;20261;-81
2022/11/04 06:40:55;;;;;;;2.93;2.10;;;;;;;13.86;60.50;97882.81;6952767;28;20735;-80
2022/11/04 06:44:16;;;;;;;4.23;1.90;;;;;;;14.34;58.41;97882.97;6952984;28;20290;-80
2022/11/04 06:47:39;;;;;;;3.43;1.90;;;;;;;14.05;58.87;97894.22;6951267;28;20254;-80
2022/11/04 06:51:01;;;;;;;2.00;1.90;;;;;;;14.13;59.16;97896.47;6952009;28;20741;-80
2022/11/04 06:54:22;;;;;;;2.40;1.87;;;;;;;14.28;59.08;97891.31;6952223;28;20284;-80
2022/11/04 06:57:44;;;;;;;1.97;1.87;;;;;;;14.08;59.88;97874.72;6951709;28;20369;-80
2022/11/04 07:01:06;;;;;;;2.53;2.27;;;;;;;13.93;60.24;97894.28;6956513;28;20258;-80
2022/11/04 07:04:28;;;;;;;2.60;2.40;;;;;;;14.23;59.67;97889.34;6980014;28;20239;-80
2022/11/04 07:07:50;;;;;;;5.30;2.67;;;;;;;14.29;59.67;97882.91;6981280;28;20720;-81
2022/11/04 07:11:12;;;;;;;3.47;2.70;;;;;;;14.25;62.59;97886.38;6988650;28;20223;-81
2022/11/04 07:14:34;;;;;;;2.90;2.60;;;;;;;14.45;60.12;97886.66;6987520;28;20238;-80
2022/11/04 07:17:56;;;;;;;4.53;3.00;;;;;;;14.28;60.12;97875.06;6977935;28;20245;-80
2022/11/04 07:21:19;;;;;;;3.33;3.03;;;;;;;14.12;60.71;97856.91;6978763;28;20222;-80
2022/11/04 07:24:41;;;;;;;2.83;2.50;;;;;;;14.19;60.97;97865.69;6978720;28;20245;-82
2022/11/04 07:28:02;;;;;;;3.17;2.50;;;;;;;14.27;61.02;97863.38;6978084;28;20234;-80
2022/11/04 07:31:24;;;;;;;4.30;2.47;;;;;;;14.48;60.44;97854.44;6977799;28;20237;-79
2022/11/04 07:34:45;;;;;;;6.07;2.80;;;;;;;14.53;59.56;97840.94;6978860;28;20241;-81
2022/11/04 07:38:08;;;;;;;3.73;3.00;;;;;;;14.53;59.81;97862.63;6976941;28;20766;-79
2022/11/04 07:41:30;;;;;;;6.30;3.40;;;;;;;14.34;59.52;97869.44;6977549;28;20326;-78
2022/11/04 07:44:51;;;;;;;8.27;4.83;;;;;;;13.36;63.12;97865.75;6976852;28;20254;-79
2022/11/04 07:48:13;;;;;;;8.63;5.33;;;;;;;13.93;62.51;97860.97;6976262;28;20664;-80
2022/11/04 07:51:34;;;;;;;5.63;3.60;;;;;;;14.53;60.86;97857.22;6977267;28;20268;-80
2022/11/04 07:54:57;;;;;;;4.77;3.90;;;;;;;14.52;60.90;97852.84;6978255;28;20264;-79
2022/11/04 07:58:20;;;;;;;7.53;4.53;;;;;;;14.51;60.72;97850.41;6977639;28;20223;-80
2022/11/04 08:01:41;;;;;;;5.80;4.80;;;;;;;14.62;60.55;97861.09;6977778;28;20233;-80
2022/11/04 08:05:05;;;;;;;7.23;4.30;;;;;;;14.12;61.12;97836.06;6977771;28;20746;-80
2022/11/04 08:08:27;;;;;;;7.33;4.33;;;;;;;14.34;61.67;97850.44;6976725;28;20208;-80
2022/11/04 08:11:50;;;;;;;5.97;4.10;;;;;;;14.31;60.86;97780.47;6978088;28;20262;-80
2022/11/04 08:15:12;;;;;;;5.10;4.60;;;;;;;14.87;59.93;97822.59;6975912;28;20244;-80
2022/11/04 08:18:34;;;;;;;7.50;4.87;;;;;;;15.15;59.64;97853.00;6976937;28;20597;-80
2022/11/04 08:21:55;;;;;;;5.97;3.70;;;;;;;15.10;59.15;97852.16;6977206;28;20311;-80
2022/11/04 08:25:17;;;;;;;4.60;4.10;;;;;;;14.05;61.57;97861.69;6977229;28;20230;-80
2022/11/04 08:28:40;;;;;;;4.97;4.10;;;;;;;15.15;60.20;97861.13;6976412;28;20673;-81
2022/11/04 08:32:02;;;;;;;11.97;8.93;;;;;;;15.30;60.29;97861.31;6972613;28;20218;-81
2022/11/04 08:35:23;;;;;;;11.57;7.93;;;;;;;15.41;59.79;97862.22;6975594;28;20206;-81
2022/11/04 08:38:45;;;;;;;8.13;4.87;;;;;;;15.60;59.56;97877.91;6976349;28;20293;-80
2022/11/04 08:42:07;;;;;;;8.07;5.00;;;;;;;15.55;59.53;97861.53;6977313;28;20228;-81
2022/11/04 08:45:30;;;;;;;6.37;4.40;;;;;;;15.37;59.55;97871.97;6977623;28;20790;-81
2022/11/04 08:48:51;;;;;;;4.50;3.20;;;;;;;15.65;58.68;97858.91;6976659;28;20219;-80
2022/11/04 08:52:14;;;;;;;6.67;4.80;;;;;;;15.97;58.51;97859.69;6977520;28;20226;-81
2022/11/04 08:55:35;;;;;;;10.73;5.10;;;;;;;15.57;59.25;97851.22;6974373;28;20227;-80
2022/11/04 08:58:58;;;;;;;6.90;5.27;;;;;;;15.89;58.78;97852.03;6975738;28;20326;-80
2022/11/04 09:02:21;;;;;;;4.87;3.27;;;;;;;16.37;56.74;97864.53;6976765;28;20231;-81
2022/11/04 09:05:46;;;;;;;4.37;2.63;;;;;;;16.35;55.34;97815.00;6975934;28;20221;-80
2022/11/04 09:09:09;;;;;;;4.27;1.93;;;;;;;16.64;53.80;97866.03;6975964;28;20199;-80
2022/11/04 09:12:30;;;;;;;1.70;1.60;;;;;;;16.33;54.06;97844.41;6976057;28;20232;-80
2022/11/04 09:15:54;;;;;;;2.23;1.80;;;;;;;16.59;53.77;97874.22;6974505;28;20210;-81
2022/11/04 09:19:17;;;;;;;3.57;1.80;;;;;;;16.73;53.55;97879.97;6976096;28;20231;-81
2022/11/04 09:22:38;;;;;;;1.93;1.77;;;;;;;16.83;53.40;97883.56;6978745;28;20309;-81
2022/11/04 09:26:04;;;;;;;2.63;2.10;;;;;;;16.71;53.44;97888.41;6979221;28;20208;-81
2022/11/04 09:29:26;;;;;;;2.10;1.90;;;;;;;16.46;53.10;97852.91;6985697;28;20204;-81
2022/11/04 09:32:47;;;;;;;2.20;1.53;;;;;;;16.53;52.94;97893.50;6976188;28;20244;-80
2022/11/04 09:36:11;;;;;;;1.80;1.70;;;;;;;16.54;53.62;97893.22;6975450;28;20232;-81
2022/11/04 09:39:32;;;;;;;2.40;2.03;;;;;;;16.55;52.86;97888.59;6975365;28;20222;-81
2022/11/04 09:43:03;;;;;;;1.80;1.70;;;;;;;16.63;51.60;97883.47;6978595;28;20256;-81
2022/11/04 09:46:26;;;;;;;2.13;1.60;;;;;;;16.88;51.29;97885.47;6980375;28;20226;-81
2022/11/04 09:49:50;;;;;;;1.77;1.67;;;;;;;17.02;51.16;97867.53;6979622;28;20245;-81
2022/11/04 09:53:17;;;;;;;2.27;1.63;;;;;;;17.18;50.42;97855.59;6979567;28;20218;-80
2022/11/04 09:56:42;;;;;;;1.73;1.63;;;;;;;17.27;50.59;97865.69;6979837;28;20279;-81
2022/11/04 10:00:05;;;;;;;2.20;2.00;;;;;;;17.41;49.81;97858.66;6979255;28;20665;-81
2022/11/04 10:03:41;;;;;;;2.60;1.40;;;;;;;17.30;48.95;97848.81;6979253;28;20231;-81
2022/11/04 10:07:12;;;;;;;4.40;1.77;;;;;;;17.35;48.75;97875.22;6980203;28;20254;-82
2022/11/04 10:10:41;;;;;;;1.80;1.70;;;;;;;17.54;49.18;97858.13;6979664;28;20189;-78
2022/11/04 10:14:14;;;;;;;5.40;1.60;;;;;;;17.72;48.89;97859.47;6950316;28;20253;-80
2022/11/04 10:17:47;;;;;;;2.43;2.03;;;;;;;17.56;48.98;97838.75;6951694;28;20281;-79
2022/11/04 10:21:17;;;;;;;2.83;1.80;;;;;;;17.62;48.41;97838.47;6953073;28;20247;-79
2022/11/04 10:24:42;;;;;;;2.00;1.53;;;;;;;16.88;47.61;97844.63;6952804;28;20239;-80
2022/11/04 10:28:05;;;;;;;3.80;2.20;;;;;;;16.87;50.39;97856.63;6953267;28;20210;-82
2022/11/04 10:31:27;;;;;;;2.43;2.00;;;;;;;17.76;48.63;97850.47;6959711;28;20250;-80
2022/11/04 10:34:52;;;;;;;4.50;2.07;;;;;;;17.96;47.17;97836.81;6973672;28;20232;-78
2022/11/04 10:38:18;;;;;;;3.73;1.97;;;;;;;17.99;47.57;97795.34;6976738;28;20308;-82
2022/11/04 10:41:40;;;;;;;4.30;2.23;;;;;;;17.74;46.76;97841.75;6980019;28;20760;-81
2022/11/04 10:45:03;;;;;;;2.83;1.97;;;;;;;17.91;48.50;97831.38;6980067;28;20239;-80
2022/11/04 10:48:28;;;;;;;1.80;1.67;;;;;;;18.14;46.97;97819.03;6982031;28;20210;-81
2022/11/04 10:51:50;;;;;;;3.50;1.60;;;;;;;17.93;44.49;97834.63;6981698;28;20222;-80
2022/11/04 10:55:19;;;;;;;2.53;1.70;;;;;;;17.92;46.41;97830.28;6983129;28;20878;-79
2022/11/04 10:58:45;;;;;;;2.40;1.63;;;;;;;18.57;45.67;97830.09;6979862;28;20216;-80
2022/11/04 11:02:08;;;;;;;3.63;1.90;;;;;;;18.71;45.53;97820.25;6980178;28;20226;-81
2022/11/04 11:05:30;;;;;;;2.63;1.53;;;;;;;18.39;43.93;97816.28;6980038;28;20668;-81
2022/11/04 11:08:52;;;;;;;3.33;1.97;;;;;;;18.72;44.38;97793.72;6979076;28;20287;-81
2022/11/04 11:12:22;;;;;;;3.10;1.77;;;;;;;18.97;43.52;97807.22;6979978;28;20227;-81
2022/11/04 11:15:44;;;;;;;2.67;1.60;;;;;;;18.93;44.04;97817.91;6983267;28;20282;-81
2022/11/04 11:19:16;;;;;;;6.37;1.80;;;;;;;18.88;43.27;97817.94;6982270;28;20264;-80
2022/11/04 11:22:40;;;;;;;2.43;1.97;;;;;;;18.79;43.24;97806.00;6977727;28;20233;-80
2022/11/04 11:26:02;;;;;;;2.67;1.80;;;;;;;18.59;42.88;97803.38;6978174;28;20206;-80
2022/11/04 11:29:25;;;;;;;3.60;1.80;;;;;;;18.91;43.59;97808.38;6977064;28;20305;-80
2022/11/04 11:32:52;;;;;;;2.43;1.80;;;;;;;19.05;41.92;97784.81;6977685;28;20273;-82
2022/11/04 11:36:19;;;;;;;3.97;2.40;;;;;;;18.52;43.48;97800.09;6977348;28;20206;-81
2022/11/04 11:39:44;;;;;;;3.00;1.97;;;;;;;18.24;43.32;97797.19;6977296;28;20305;-81
2022/11/04 11:43:05;;;;;;;4.40;2.40;;;;;;;18.10;45.20;97801.63;6977481;28;20590;-79
2022/11/04 11:46:29;;;;;;;3.50;2.30;;;;;;;18.15;44.02;97786.03;6977231;28;20217;-81
2022/11/04 11:50:05;;;;;;;3.97;2.30;;;;;;;17.48;45.19;97791.06;6977421;28;20288;-81
2022/11/04 11:53:32;;;;;;;3.97;1.93;;;;;;;18.19;44.08;97800.75;6977277;28;20226;-80
2022/11/04 11:56:55;;;;;;;4.20;1.80;;;;;;;17.51;46.32;97800.63;6977479;28;20252;-81
2022/11/04 12:00:19;;;;;;;3.33;2.03;;;;;;;17.95;44.11;97786.09;6976707;28;20225;-81
2022/11/04 12:03:43;;;;;;;5.33;2.67;;;;;;;18.25;44.69;97790.63;6976927;28;20612;-80
2022/11/04 12:07:09;;;;;;;1.87;1.70;;;;;;;18.48;45.49;97792.75;6977049;28;20220;-80
2022/11/04 12:10:36;;;;;;;3.43;2.23;;;;;;;18.56;45.06;97778.50;6977019;28;20336;-80
2022/11/04 12:14:02;;;;;;;4.53;2.20;;;;;;;18.32;43.13;97764.72;6976523;28;20250;-80
2022/11/04 12:17:35;;;;;;;3.47;2.10;;;;;;;18.28;44.68;97790.09;6976922;28;20185;-81
2022/11/04 12:21:02;;;;;;;7.53;2.47;;;;;;;18.51;44.72;97787.56;6973403;28;20252;-80
2022/11/04 12:24:32;;;;;;;4.43;1.90;;;;;;;18.96;42.48;97790.03;6965270;28;20201;-80
2022/11/04 12:27:59;;;;;;;4.40;1.93;;;;;;;18.40;43.81;97794.16;6975591;28;20674;-80
2022/11/04 12:31:27;;;;;;;4.67;2.63;;;;;;;18.25;44.66;97790.63;6975911;28;20257;-80
2022/11/04 12:34:59;;;;;;;4.23;2.20;;;;;;;18.39;43.35;97797.97;6962397;28;20219;-79
2022/11/04 12:38:31;;;;;;;9.60;2.10;;;;;;;18.39;42.99;97797.19;6987623;28;20270;-80
2022/11/04 12:42:02;;;;;;;6.70;2.57;;;;;;;17.96;43.71;97765.09;6976123;28;20281;-79
2022/11/04 12:45:32;;;;;;;3.40;2.80;;;;;;;18.33;44.04;97803.75;6976493;28;20244;-79
2022/11/04 12:49:31;;;;;;;3.30;2.90;;;;;;;18.35;42.88;97782.44;6975468;28;20266;-80
2022/11/04 12:53:05;;;;;;;7.53;3.00;;;;;;;18.36;43.13;97767.69;6953329;28;20268;-80
2022/11/04 12:56:36;;;;;;;8.73;2.20;;;;;;;18.51;43.31;97792.22;6948867;28;20687;-80
2022/11/04 13:00:08;;;;;;;9.60;3.97;;;;;;;18.88;42.98;97814.41;6947355;28;20306;-80
2022/11/04 13:03:34;;;;;;;3.43;1.93;;;;;;;18.71;43.28;97808.47;6947574;28;20258;-80
2022/11/04 13:06:59;;;;;;;5.27;2.00;;;;;;;18.62;43.44;97818.34;6947835;28;20300;-82
2022/11/04 13:10:23;;;;;;;4.50;2.03;;;;;;;18.79;43.43;97821.53;6955397;28;20650;-80
2022/11/04 13:13:46;;;;;;;4.70;2.30;;;;;;;18.94;42.78;97822.31;6974466;28;20323;-79
2022/11/04 13:17:11;;;;;;;3.93;1.77;;;;;;;18.60;42.72;97824.09;6978587;28;20228;-79
2022/11/04 13:20:42;;;;;;;3.00;1.50;;;;;;;18.57;42.60;97791.09;6980567;28;20313;-80
2022/11/04 13:24:05;;;;;;;3.30;1.90;;;;;;;18.83;42.85;97831.66;6980832;28;20290;-80
2022/11/04 13:27:32;;;;;;;3.77;1.60;;;;;;;19.15;41.49;97825.69;6977805;28;20287;-80
2022/11/04 13:31:01;;;;;;;3.40;1.70;;;;;;;18.43;42.18;97795.50;6976518;28;20210;-80
2022/11/04 13:34:31;;;;;;;4.83;1.77;;;;;;;18.25;42.96;97802.38;6997946;28;20200;-80
2022/11/04 13:38:00;;;;;;;2.80;1.70;;;;;;;18.67;43.02;97807.41;6980369;28;20270;-80
2022/11/04 13:41:40;;;;;;;5.47;2.40;;;;;;;18.96;42.79;97819.25;6981025;28;20224;-80
2022/11/04 13:45:06;;;;;;;3.60;1.60;;;;;;;18.76;41.22;97820.19;6952392;28;20287;-79
2022/11/04 13:48:30;;;;;;;5.63;2.27;;;;;;;18.17;42.35;97826.69;6975799;28;20226;-79
2022/11/04 13:52:02;;;;;;;5.50;2.07;;;;;;;18.54;43.00;97814.31;7007723;28;20317;-79
2022/11/04 13:55:25;;;;;;;5.27;2.03;;;;;;;18.24;43.09;97814.38;7007218;28;20353;-79
2022/11/04 13:58:52;;;;;;;5.07;2.00;;;;;;;18.76;42.37;97814.72;6979359;28;20233;-79
2022/11/04 14:02:38;;;;;;;6.57;2.07;;;;;;;18.94;42.27;97841.41;6971667;28;20303;-79
2022/11/04 14:06:06;;;;;;;5.57;1.87;;;;;;;18.76;43.20;97833.03;6979820;28;20201;-79
2022/11/04 14:09:36;;;;;;;6.37;2.20;;;;;;;18.98;42.19;97834.28;6952591;28;20236;-80
2022/11/04 14:13:44;;;;;;;5.17;2.47;;;;;;;18.95;42.53;97840.31;6963722;28;20272;-79
2022/11/04 14:17:45;;;;;;;5.97;1.80;;;;;;;18.05;43.66;97848.00;6969780;28;20707;-79
2022/11/04 14:21:09;;;;;;;4.17;1.70;;;;;;;17.35;44.70;97834.38;6979989;28;20252;-79
2022/11/04 14:24:30;;;;;;;2.33;1.60;;;;;;;18.02;43.65;97833.00;6980030;28;20244;-79
2022/11/04 14:27:53;;;;;;;4.47;2.03;;;;;;;17.71;45.30;97846.94;6977968;28;20224;-79
2022/11/04 14:31:35;;;;;;;4.27;2.17;;;;;;;17.42;45.55;97854.84;6980042;28;20228;-79
2022/11/04 14:34:58;;;;;;;9.60;4.13;;;;;;;18.18;44.74;97850.13;6979442;28;20281;-80
2022/11/04 14:38:25;;;;;;;12.33;6.73;;;;;;;18.53;44.06;97850.91;6978963;28;20228;-80
2022/11/04 14:41:56;;;;;;;10.87;5.07;;;;;;;18.62;44.41;97870.22;6979194;28;20253;-79
2022/11/04 14:45:21;;;;;;;7.63;4.10;;;;;;;18.59;42.69;97859.88;6979374;28;20298;-80
2022/11/04 14:48:50;;;;;;;5.30;2.90;;;;;;;18.69;43.73;97870.75;6979205;28;20300;-80
2022/11/04 14:52:17;;;;;;;4.70;2.37;;;;;;;18.55;43.50;97869.69;6979350;28;20271;-80
2022/11/04 14:55:39;;;;;;;5.03;2.10;;;;;;;18.68;43.54;97880.03;6979953;28;20209;-79
2022/11/04 14:59:02;;;;;;;5.97;2.20;;;;;;;18.44;44.61;97885.31;6979215;28;20259;-79
2022/11/04 15:02:25;;;;;;;2.87;2.07;;;;;;;18.08;45.95;97882.88;6980060;28;20216;-80
2022/11/04 15:05:49;;;;;;;6.40;2.53;;;;;;;17.95;45.79;97894.38;6980185;28;20243;-79
2022/11/04 15:09:20;;;;;;;2.77;2.23;;;;;;;17.20;46.83;97899.72;6978782;28;20208;-78
2022/11/04 15:12:53;;;;;;;2.93;1.80;;;;;;;17.09;46.92;97903.50;6978824;28;20714;-79
2022/11/04 15:16:19;;;;;;;2.13;1.50;;;;;;;17.07;47.19;97898.34;6980129;28;20192;-80
2022/11/04 15:19:41;;;;;;;1.83;1.50;;;;;;;16.44;48.58;97912.22;6968330;28;20252;-79
2022/11/04 15:23:07;;;;;;;6.57;5.70;;;;;;;16.87;48.42;97911.88;6953951;28;20248;-79
2022/11/04 15:26:30;;;;;;;13.33;8.93;;;;;;;16.82;48.88;97895.50;6951084;28;20603;-79
2022/11/04 15:29:55;;;;;;;2.53;1.97;;;;;;;16.80;49.74;97907.78;6949920;28;20229;-80
2022/11/04 15:33:17;;;;;;;5.53;4.87;;;;;;;16.71;49.66;97909.34;6952856;28;20688;-79
2022/11/04 15:36:41;;;;;;;3.97;2.80;;;;;;;16.76;49.55;97903.94;6962141;28;20202;-79
2022/11/04 15:40:06;;;;;;;3.47;1.70;;;;;;;16.61;50.32;97892.97;6979347;28;20785;-79
2022/11/04 15:43:28;;;;;;;1.67;1.57;;;;;;;16.66;51.57;97920.22;6980002;28;20253;-80
2022/11/04 15:46:52;;;;;;;1.70;1.60;;;;;;;16.70;51.63;97905.81;6979712;28;20208;-79
2022/11/04 15:50:22;;;;;;;2.70;2.50;;;;;;;16.53;51.93;97926.13;6974018;28;20250;-79
2022/11/04 15:53:50;;;;;;;2.37;2.17;;;;;;;16.75;51.75;97924.09;6985304;28;20241;-79
2022/11/04 15:57:15;;;;;;;4.00;1.97;;;;;;;16.20;51.13;97864.72;6977897;28;20207;-80
2022/11/04 16:00:37;;;;;;;3.90;2.13;;;;;;;16.32;52.23;97932.50;6977470;28;20367;-79
2022/11/04 16:04:00;;;;;;;12.37;9.23;;;;;;;16.38;50.83;97945.91;6967309;28;20242;-79
2022/11/04 16:07:23;;;;;;;5.80;3.83;;;;;;;16.47;51.33;97943.53;6950040;28;20582;-79
2022/11/04 16:10:47;;;;;;;3.57;3.23;;;;;;;16.42;52.11;97949.75;6948180;28;20226;-80
2022/11/04 16:14:21;;;;;;;2.83;2.60;;;;;;;16.22;51.70;97956.94;6966070;28;20289;-78
2022/11/04 16:17:44;;;;;;;3.80;2.63;;;;;;;16.35;51.93;97951.84;6969893;28;20235;-79
2022/11/04 16:21:08;;;;;;;6.10;2.87;;;;;;;16.22;51.70;97959.66;6973663;28;20283;-79
2022/11/04 16:24:31;;;;;;;4.33;2.70;;;;;;;16.22;51.97;97960.47;6973133;28;20242;-79
2022/11/04 16:27:52;;;;;;;3.97;3.37;;;;;;;16.12;53.34;97974.00;6972222;28;20310;-79
2022/11/04 16:31:26;;;;;;;5.70;5.03;;;;;;;16.17;53.26;97968.56;6972706;28;20361;-79
2022/11/04 16:34:49;;;;;;;8.00;3.60;;;;;;;16.31;52.72;97972.50;6974315;28;20294;-78
2022/11/04 16:38:11;;;;;;;12.80;5.13;;;;;;;16.57;52.33;97981.69;6967999;28;20298;-79
2022/11/04 16:41:36;;;;;;;9.70;4.57;;;;;;;16.66;52.14;97969.22;6973468;28;20233;-79
2022/11/04 16:45:01;;;;;;;4.43;2.87;;;;;;;16.75;51.38;97987.50;6973022;28;20257;-79